createdAt,value
2023-04-25T00:03:26.243Z,5.46
2023-04-25T00:08:29.564Z,5.32
2023-04-25T00:13:32.771Z,5.40
2023-04-25T00:18:37.408Z,5.57
2023-04-25T00:23:40.594Z,5.44
2023-04-25T00:28:43.547Z,5.36
2023-04-25T00:33:48.096Z,5.32
2023-04-25T00:38:51.286Z,5.28
2023-04-25T00:43:55.994Z,5.32
2023-04-25T00:49:00.640Z,5.28
2023-04-25T00:54:04.541Z,5.23
2023-04-25T00:59:08.029Z,5.13
2023-04-25T01:04:12.768Z,5.04
2023-04-25T01:09:16.968Z,4.99
2023-04-25T01:14:20.214Z,4.96
2023-04-25T01:19:26.032Z,4.92
2023-04-25T01:24:30.598Z,4.88
2023-04-25T01:29:35.058Z,4.78
2023-04-25T01:34:38.539Z,4.76
2023-04-25T01:39:43.220Z,4.72
2023-04-25T01:44:46.372Z,4.69
2023-04-25T01:49:49.813Z,4.68
2023-04-25T01:54:58.356Z,4.94
2023-04-25T02:00:07.801Z,4.99
2023-04-25T02:05:16.834Z,4.89
2023-04-25T02:10:22.112Z,4.78
2023-04-25T02:15:41.276Z,4.80
2023-04-25T02:20:51.860Z,4.92
2023-04-25T02:25:58.313Z,5.01
2023-04-25T02:31:01.474Z,4.92
2023-04-25T02:36:05.052Z,4.78
2023-04-25T02:41:09.659Z,4.73
2023-04-25T02:46:12.878Z,4.66
2023-04-25T02:51:17.529Z,4.70
2023-04-25T02:56:22.287Z,4.85
2023-04-25T03:01:25.832Z,4.99
2023-04-25T03:06:29.011Z,5.00
2023-04-25T03:11:33.567Z,4.99
2023-04-25T03:16:38.321Z,5.01
2023-04-25T03:21:44.173Z,5.16
2023-04-25T03:26:48.633Z,5.23
2023-04-25T03:31:51.929Z,5.27
2023-04-25T03:36:56.748Z,5.39
2023-04-25T03:42:02.054Z,5.43
2023-04-25T03:47:05.770Z,5.48
2023-04-25T03:52:09.879Z,5.52
2023-04-25T03:57:17.478Z,5.49
2023-04-25T04:02:20.942Z,5.60
2023-04-25T04:07:26.680Z,5.62
2023-04-25T04:12:34.929Z,5.62
2023-04-25T04:17:38.561Z,5.60
2023-04-25T04:22:42.078Z,5.54
2023-04-25T04:27:53.115Z,5.44
2023-04-25T04:33:20.739Z,5.33
2023-04-25T04:38:28.745Z,5.28
2023-04-25T04:43:37.733Z,5.32
2023-04-25T04:49:07.330Z,5.43
2023-04-25T04:54:20.200Z,5.41
2023-04-25T04:59:33.494Z,5.53
2023-04-25T05:04:59.795Z,5.52
2023-04-25T05:10:12.262Z,5.64
2023-04-25T05:15:37.190Z,5.72
2023-04-25T05:21:06.514Z,5.54
2023-04-25T05:26:25.122Z,5.37
2023-04-25T05:31:40.383Z,5.41
2023-04-25T05:36:50.605Z,5.43
2023-04-25T05:41:53.923Z,5.50
2023-04-25T05:47:21.465Z,5.85
2023-04-25T05:52:52.334Z,6.15
2023-04-25T05:58:07.935Z,6.24
2023-04-25T06:03:16.467Z,6.40
2023-04-25T06:08:22.094Z,6.72
2023-04-25T06:13:25.099Z,6.71
2023-04-25T06:18:29.652Z,6.67
2023-04-25T06:23:33.146Z,6.76
2023-04-25T06:28:41.410Z,6.87
2023-04-25T06:33:47.026Z,6.67
2023-04-25T06:38:50.214Z,7.07
2023-04-25T06:43:56.657Z,7.29
2023-04-25T06:49:10.436Z,7.56
2023-04-25T06:54:13.810Z,7.60
2023-04-25T06:59:27.406Z,7.39
2023-04-25T07:04:32.278Z,7.59
2023-04-25T07:09:37.160Z,7.60
2023-04-25T07:14:41.384Z,7.54
2023-04-25T07:19:47.500Z,7.44
2023-04-25T07:24:51.241Z,7.61
2023-04-25T07:29:57.334Z,7.88
2023-04-25T07:35:02.804Z,8.38
2023-04-25T07:40:07.357Z,8.60
2023-04-25T07:45:11.453Z,8.87
2023-04-25T07:50:17.642Z,9.25
2023-04-25T07:55:21.404Z,9.26
2023-04-25T08:00:45.239Z,9.70
2023-04-25T08:06:08.741Z,10.22
2023-04-25T08:11:20.493Z,10.48
2023-04-25T08:16:23.685Z,10.29
2023-04-25T08:21:29.222Z,9.96
2023-04-25T08:26:35.956Z,10.24
2023-04-25T08:31:39.676Z,10.22
2023-04-25T08:36:45.889Z,10.13
2023-04-25T08:42:17.617Z,10.26
2023-04-25T08:47:24.044Z,10.46
2023-04-25T08:52:38.879Z,10.41
2023-04-25T08:57:44.144Z,9.65
2023-04-25T09:02:49.067Z,9.80
2023-04-25T09:07:53.749Z,11.05
2023-04-25T09:13:08.034Z,11.30
2023-04-25T09:18:30.627Z,10.98
2023-04-25T09:23:43.551Z,11.65
2023-04-25T09:28:49.089Z,11.68
2023-04-25T09:34:01.482Z,11.79
2023-04-25T09:39:17.649Z,11.49
2023-04-25T09:44:29.182Z,11.68
2023-04-25T09:49:32.402Z,12.08
2023-04-25T09:54:49.646Z,11.25
2023-04-25T09:59:58.251Z,11.08
2023-04-25T10:05:09.987Z,11.10
2023-04-25T10:10:19.628Z,10.63
2023-04-25T10:15:24.445Z,10.72
2023-04-25T10:20:27.604Z,10.44
2023-04-25T10:25:32.614Z,10.45
2023-04-25T10:30:35.727Z,10.46
2023-04-25T10:35:39.787Z,10.73
2023-04-25T10:41:04.736Z,11.07
2023-04-25T10:46:21.222Z,11.64
2023-04-25T10:51:26.375Z,11.79
2023-04-25T10:56:32.399Z,11.61
2023-04-25T11:01:39.804Z,10.96
2023-04-25T11:07:05.451Z,11.32
2023-04-25T11:12:12.965Z,11.19
2023-04-25T11:17:16.217Z,11.34
2023-04-25T11:22:19.300Z,11.45
2023-04-25T11:27:25.834Z,11.12
2023-04-25T11:32:29.485Z,11.78
2023-04-25T11:37:32.853Z,12.83
2023-04-25T11:42:39.340Z,11.79
2023-04-25T11:47:42.605Z,10.72
2023-04-25T11:52:47.477Z,9.90
2023-04-25T11:57:52.984Z,10.42
2023-04-25T12:02:59.143Z,10.38
2023-04-25T12:08:15.521Z,10.13
2023-04-25T12:13:24.850Z,10.19
2023-04-25T12:18:28.720Z,10.80
2023-04-25T12:23:32.655Z,11.00
2023-04-25T12:28:37.364Z,11.77
2023-04-25T12:33:42.141Z,12.61
2023-04-25T12:38:45.156Z,12.28
2023-04-25T12:43:49.864Z,12.77
2023-04-25T12:48:53.345Z,12.37
2023-04-25T12:53:56.492Z,11.98
2023-04-25T12:59:01.115Z,11.34
2023-04-25T13:04:04.384Z,11.48
2023-04-25T13:09:07.772Z,11.64
2023-04-25T13:14:12.175Z,11.82
2023-04-25T13:19:15.254Z,11.76
2023-04-25T13:24:19.107Z,12.02
2023-04-25T13:29:23.611Z,12.39
2023-04-25T13:34:26.828Z,12.08
2023-04-25T13:39:30.318Z,11.79
2023-04-25T13:44:34.661Z,11.82
2023-04-25T13:49:37.631Z,11.27
2023-04-25T13:54:40.601Z,11.06
2023-04-25T13:59:45.059Z,11.00
2023-04-25T14:04:48.389Z,11.65
2023-04-25T14:09:51.611Z,11.88
2023-04-25T14:14:56.049Z,10.98
2023-04-25T14:19:59.048Z,10.25
2023-04-25T14:25:02.089Z,10.33
2023-04-25T14:30:09.674Z,10.98
2023-04-25T14:35:13.110Z,11.25
2023-04-25T14:40:17.974Z,11.43
2023-04-25T14:45:22.293Z,11.60
2023-04-25T14:50:25.616Z,11.57
2023-04-25T14:55:29.056Z,11.80
2023-04-25T15:00:34.266Z,11.88
2023-04-25T15:05:37.323Z,12.16
2023-04-25T15:10:40.407Z,12.14
2023-04-25T15:15:44.799Z,11.74
2023-04-25T15:20:47.835Z,11.96
2023-04-25T15:25:52.486Z,12.02
2023-04-25T15:30:56.946Z,11.96
2023-04-25T15:36:00.149Z,12.11
2023-04-25T15:41:04.809Z,12.05
2023-04-25T15:46:09.977Z,12.01
2023-04-25T15:51:13.311Z,11.89
2023-04-25T15:56:16.510Z,11.28
2023-04-25T16:01:24.441Z,11.25
2023-04-25T16:06:28.537Z,11.15
2023-04-25T16:11:31.942Z,10.88
2023-04-25T16:16:36.512Z,10.57
2023-04-25T16:21:39.636Z,10.81
2023-04-25T16:26:42.738Z,10.59
2023-04-25T16:31:47.628Z,10.43
2023-04-25T16:36:51.542Z,10.20
2023-04-25T16:41:54.790Z,10.15
2023-04-25T16:46:59.460Z,9.74
2023-04-25T16:52:02.589Z,9.66
2023-04-25T16:57:06.999Z,9.94
2023-04-25T17:02:14.041Z,9.98
2023-04-25T17:07:18.098Z,10.03
2023-04-25T17:12:21.851Z,10.11
2023-04-25T17:17:26.774Z,9.92
2023-04-25T17:22:30.669Z,9.70
2023-04-25T17:27:33.964Z,9.33
2023-04-25T17:32:38.477Z,9.27
2023-04-25T17:37:42.246Z,9.33
2023-04-25T17:42:46.106Z,9.40
2023-04-25T17:47:50.817Z,9.42
2023-04-25T17:52:53.887Z,9.46
2023-04-25T17:57:57.043Z,9.58
2023-04-25T18:03:01.591Z,9.65
2023-04-25T18:08:06.771Z,9.40
2023-04-25T18:13:10.159Z,9.20
2023-04-25T18:18:20.394Z,9.03
2023-04-25T18:23:23.492Z,8.73
2023-04-25T18:28:26.654Z,8.55
2023-04-25T18:33:31.366Z,8.28
2023-04-25T18:38:36.085Z,8.11
2023-04-25T18:43:39.471Z,7.87
2023-04-25T18:48:44.294Z,7.69
2023-04-25T18:53:47.769Z,7.53
2023-04-25T18:58:52.418Z,7.35
2023-04-25T19:03:57.812Z,7.23
2023-04-25T19:09:02.436Z,7.08
2023-04-25T19:14:05.833Z,6.95
2023-04-25T19:19:10.877Z,6.83
2023-04-25T19:24:14.185Z,6.73
2023-04-25T19:29:18.158Z,6.61
2023-04-25T19:34:22.621Z,6.55
2023-04-25T19:39:25.952Z,6.42
2023-04-25T19:44:29.189Z,6.32
2023-04-25T19:49:33.668Z,6.23
2023-04-25T19:54:36.961Z,6.09
2023-04-25T19:59:40.049Z,6.01
2023-04-25T20:04:44.549Z,5.99
2023-04-25T20:09:47.762Z,5.90
2023-04-25T20:14:51.031Z,5.78
2023-04-25T20:19:56.370Z,5.72
2023-04-25T20:24:59.665Z,5.71
2023-04-25T20:30:05.048Z,5.60
2023-04-25T20:35:10.632Z,5.47
2023-04-25T20:40:14.116Z,5.43
2023-04-25T20:45:17.745Z,5.38
2023-04-25T20:50:22.122Z,5.32
2023-04-25T20:55:25.954Z,5.24
2023-04-25T21:00:29.466Z,5.17
2023-04-25T21:05:36.404Z,5.13
2023-04-25T21:10:39.701Z,5.08
2023-04-25T21:15:42.762Z,5.00
2023-04-25T21:20:47.600Z,4.91
2023-04-25T21:25:54.169Z,4.91
2023-04-25T21:30:57.322Z,4.89
2023-04-25T21:36:02.202Z,4.87
2023-04-25T21:41:05.860Z,4.82
2023-04-25T21:51:16.855Z,4.76
2023-04-25T21:56:19.838Z,4.68
2023-04-25T22:01:23.238Z,4.65
2023-04-25T22:06:28.643Z,4.55
2023-04-25T22:11:31.601Z,4.48
2023-04-25T22:16:34.635Z,4.38
2023-04-25T22:21:39.003Z,4.36
2023-04-25T22:26:42.157Z,4.31
2023-04-25T22:31:45.411Z,4.27
2023-04-25T22:36:50.655Z,4.23
2023-04-25T22:41:54.449Z,4.23
2023-04-25T22:46:57.593Z,4.18
2023-04-25T22:52:03.623Z,4.15
2023-04-25T22:57:07.986Z,4.09
2023-04-25T23:02:11.088Z,4.05
2023-04-25T23:07:16.061Z,3.99
2023-04-25T23:12:20.060Z,3.95
2023-04-25T23:17:23.036Z,3.93
2023-04-25T23:22:27.366Z,3.88
2023-04-25T23:27:30.465Z,3.87
2023-04-25T23:32:33.744Z,3.82
2023-04-25T23:37:38.841Z,3.81
2023-04-25T23:42:43.085Z,3.80
2023-04-25T23:47:46.756Z,3.79
2023-04-25T23:52:51.359Z,3.76
2023-04-25T23:57:54.594Z,3.71
